This is the latest recevied weather packets stored in our database for station/object OK1LPD-6. If no packets are shown the sender has not sent any weather packets the latest 10 day(s).
| Time | Temp. | Humidity | Pressure | Rain* | Wind** | Luminosity | Snow |
|---|---|---|---|---|---|---|---|
| 1787825191 | 25.56° C | 51% | 1018.3 hPa | 0 mm | - | - | - |
| 1787824592 | 25.56° C | 51% | 1018.1 hPa | 0 mm | - | - | - |
| 1787824001 | 25.56° C | 51% | 1018.2 hPa | 0 mm | - | - | - |
| 1787823391 | 25.56° C | 52% | 1018.5 hPa | 0 mm | - | - | - |
| 1787822792 | 24.44° C | 53% | 1018.4 hPa | 0 mm | - | - | - |
| 1787822209 | 24.44° C | 54% | 1018.4 hPa | 0 mm | - | - | - |
| 1787821592 | 23.33° C | 55% | 1018.5 hPa | 0 mm | - | - | - |
| 1787820992 | 22.78° C | 57% | 1018.7 hPa | 0 mm | - | - | - |
| 1787820409 | 22.78° C | 57% | 1018.6 hPa | 0 mm | - | - | - |
| 1787819792 | 22.78° C | 56% | 1018.9 hPa | 0 mm | - | - | - |
| 1787819192 | 22.78° C | 57% | 1019.1 hPa | 0 mm | - | - | - |
| 1787818611 | 23.33° C | 57% | 1019.1 hPa | 0 mm | - | - | - |
| 1787817992 | 23.33° C | 58% | 1019.1 hPa | 0 mm | - | - | - |
| 1787817392 | 22.22° C | 61% | 1019 hPa | 0 mm | - | - | - |
| 1787816810 | 22.22° C | 64% | 1019.3 hPa | 0 mm | - | - | - |
| 1787816192 | 20.56° C | 65% | 1019.1 hPa | 0 mm | - | - | - |
| 1787815593 | 20.56° C | 65% | 1019.1 hPa | 0 mm | - | - | - |
| 1787815012 | 20° C | 65% | 1019.2 hPa | 0 mm | - | - | - |
| 1787814393 | 21.11° C | 63% | 1019 hPa | 0 mm | - | - | - |
| 1787813792 | 21.11° C | 66% | 1019.3 hPa | 0 mm | - | - | - |
| 1787813211 | 20.56° C | 69% | 1019.2 hPa | 0 mm | - | - | - |
| 1787812593 | 18.89° C | 72% | 1019.3 hPa | 0 mm | - | - | - |
| 1787811992 | 17.78° C | 75% | 1019.3 hPa | 0 mm | - | - | - |
| 1787811412 | 16.67° C | 83% | 1019.5 hPa | 0 mm | - | - | - |
| 1787810793 | 15.56° C | 86% | 1019.4 hPa | 0 mm | - | - | - |
* Rain latest hour (hover to see other rain measurements)
** Current wind speed in m/s (hover to see current wind gust speed)